sensor_id;sensor_type;location;lat;lon;timestamp;P1;durP1;ratioP1;P2;durP2;ratioP2
43861;SDS011;29510;52.140;5.034;2024-01-07T00:08:23;13.30;;;8.35;;
43861;SDS011;29510;52.140;5.034;2024-01-07T00:18:24;14.27;;;8.50;;
43861;SDS011;29510;52.140;5.034;2024-01-07T00:28:24;14.30;;;8.27;;
43861;SDS011;29510;52.140;5.034;2024-01-07T00:38:25;15.90;;;8.82;;
43861;SDS011;29510;52.140;5.034;2024-01-07T00:48:25;20.08;;;10.18;;
43861;SDS011;29510;52.140;5.034;2024-01-07T00:58:26;19.05;;;10.43;;
43861;SDS011;29510;52.140;5.034;2024-01-07T01:08:27;17.35;;;10.27;;
43861;SDS011;29510;52.140;5.034;2024-01-07T01:18:27;16.02;;;9.13;;
43861;SDS011;29510;52.140;5.034;2024-01-07T01:28:28;18.33;;;9.75;;
43861;SDS011;29510;52.140;5.034;2024-01-07T01:38:29;17.88;;;10.05;;
43861;SDS011;29510;52.140;5.034;2024-01-07T01:48:29;14.73;;;8.93;;
43861;SDS011;29510;52.140;5.034;2024-01-07T01:58:30;16.65;;;8.90;;
43861;SDS011;29510;52.140;5.034;2024-01-07T02:08:32;15.32;;;8.35;;
43861;SDS011;29510;52.140;5.034;2024-01-07T02:18:33;16.15;;;8.90;;
43861;SDS011;29510;52.140;5.034;2024-01-07T02:28:35;14.73;;;8.48;;
43861;SDS011;29510;52.140;5.034;2024-01-07T02:38:35;21.27;;;10.90;;
43861;SDS011;29510;52.140;5.034;2024-01-07T02:48:36;19.63;;;10.88;;
43861;SDS011;29510;52.140;5.034;2024-01-07T02:58:37;23.07;;;12.23;;
43861;SDS011;29510;52.140;5.034;2024-01-07T03:08:37;24.50;;;12.18;;
43861;SDS011;29510;52.140;5.034;2024-01-07T03:18:38;23.08;;;12.20;;
43861;SDS011;29510;52.140;5.034;2024-01-07T03:28:38;22.40;;;12.15;;
43861;SDS011;29510;52.140;5.034;2024-01-07T03:38:40;25.65;;;12.98;;
43861;SDS011;29510;52.140;5.034;2024-01-07T03:48:41;21.60;;;11.57;;
43861;SDS011;29510;52.140;5.034;2024-01-07T03:58:42;21.02;;;11.30;;
43861;SDS011;29510;52.140;5.034;2024-01-07T04:08:43;19.98;;;11.25;;
43861;SDS011;29510;52.140;5.034;2024-01-07T04:18:43;23.77;;;12.27;;
43861;SDS011;29510;52.140;5.034;2024-01-07T04:28:45;20.63;;;10.98;;
43861;SDS011;29510;52.140;5.034;2024-01-07T04:38:46;26.15;;;12.85;;
43861;SDS011;29510;52.140;5.034;2024-01-07T04:48:46;25.20;;;13.00;;
43861;SDS011;29510;52.140;5.034;2024-01-07T04:58:47;22.38;;;11.93;;
43861;SDS011;29510;52.140;5.034;2024-01-07T05:08:47;23.48;;;11.60;;
43861;SDS011;29510;52.140;5.034;2024-01-07T05:18:48;20.30;;;10.77;;
43861;SDS011;29510;52.140;5.034;2024-01-07T05:28:49;20.63;;;10.93;;
43861;SDS011;29510;52.140;5.034;2024-01-07T05:38:50;21.42;;;11.15;;
43861;SDS011;29510;52.140;5.034;2024-01-07T05:48:50;24.77;;;12.60;;
43861;SDS011;29510;52.140;5.034;2024-01-07T05:58:51;21.17;;;11.50;;
43861;SDS011;29510;52.140;5.034;2024-01-07T06:08:51;24.25;;;12.68;;
43861;SDS011;29510;52.140;5.034;2024-01-07T06:18:52;22.77;;;12.25;;
43861;SDS011;29510;52.140;5.034;2024-01-07T06:28:52;18.48;;;10.63;;
43861;SDS011;29510;52.140;5.034;2024-01-07T06:38:53;19.60;;;10.97;;
43861;SDS011;29510;52.140;5.034;2024-01-07T06:48:54;22.42;;;11.00;;
43861;SDS011;29510;52.140;5.034;2024-01-07T06:58:54;17.45;;;10.27;;
43861;SDS011;29510;52.140;5.034;2024-01-07T07:08:55;20.75;;;9.65;;
43861;SDS011;29510;52.140;5.034;2024-01-07T07:18:55;16.95;;;9.88;;
43861;SDS011;29510;52.140;5.034;2024-01-07T07:28:56;19.08;;;10.05;;
43861;SDS011;29510;52.140;5.034;2024-01-07T07:38:57;19.63;;;11.27;;
43861;SDS011;29510;52.140;5.034;2024-01-07T07:48:57;16.58;;;9.18;;
43861;SDS011;29510;52.140;5.034;2024-01-07T07:58:58;15.98;;;9.85;;
43861;SDS011;29510;52.140;5.034;2024-01-07T08:08:58;16.48;;;9.30;;
43861;SDS011;29510;52.140;5.034;2024-01-07T08:18:59;18.23;;;9.70;;
43861;SDS011;29510;52.140;5.034;2024-01-07T08:29:00;17.65;;;10.02;;
43861;SDS011;29510;52.140;5.034;2024-01-07T08:39:00;16.90;;;9.63;;
43861;SDS011;29510;52.140;5.034;2024-01-07T08:49:01;16.08;;;8.88;;
43861;SDS011;29510;52.140;5.034;2024-01-07T08:59:02;16.80;;;9.05;;
43861;SDS011;29510;52.140;5.034;2024-01-07T09:09:04;14.35;;;8.30;;
43861;SDS011;29510;52.140;5.034;2024-01-07T09:19:06;15.63;;;8.52;;
43861;SDS011;29510;52.140;5.034;2024-01-07T09:29:06;16.45;;;8.80;;
43861;SDS011;29510;52.140;5.034;2024-01-07T09:39:07;13.43;;;8.35;;
43861;SDS011;29510;52.140;5.034;2024-01-07T09:49:09;12.00;;;6.97;;
43861;SDS011;29510;52.140;5.034;2024-01-07T09:59:10;12.93;;;6.68;;
43861;SDS011;29510;52.140;5.034;2024-01-07T10:09:13;11.50;;;6.00;;
43861;SDS011;29510;52.140;5.034;2024-01-07T10:19:25;9.23;;;5.57;;
43861;SDS011;29510;52.140;5.034;2024-01-07T10:29:26;7.57;;;4.28;;
43861;SDS011;29510;52.140;5.034;2024-01-07T10:39:27;8.57;;;4.38;;
43861;SDS011;29510;52.140;5.034;2024-01-07T10:49:28;7.63;;;4.60;;
43861;SDS011;29510;52.140;5.034;2024-01-07T10:59:29;5.95;;;3.47;;
43861;SDS011;29510;52.140;5.034;2024-01-07T11:09:33;5.45;;;3.33;;
43861;SDS011;29510;52.140;5.034;2024-01-07T11:19:38;5.78;;;3.40;;
43861;SDS011;29510;52.140;5.034;2024-01-07T11:30:01;5.05;;;2.75;;
43861;SDS011;29510;52.140;5.034;2024-01-07T11:40:05;8.52;;;3.95;;
43861;SDS011;29510;52.140;5.034;2024-01-07T11:50:07;5.63;;;3.20;;
43861;SDS011;29510;52.140;5.034;2024-01-07T12:00:08;4.95;;;3.15;;
43861;SDS011;29510;52.140;5.034;2024-01-07T12:10:09;6.03;;;2.30;;
43861;SDS011;29510;52.140;5.034;2024-01-07T12:20:14;4.82;;;2.35;;
43861;SDS011;29510;52.140;5.034;2024-01-07T12:30:15;3.25;;;1.70;;
43861;SDS011;29510;52.140;5.034;2024-01-07T12:40:17;3.53;;;1.60;;
43861;SDS011;29510;52.140;5.034;2024-01-07T12:50:17;4.85;;;1.83;;
43861;SDS011;29510;52.140;5.034;2024-01-07T13:00:18;3.28;;;1.55;;
43861;SDS011;29510;52.140;5.034;2024-01-07T13:10:19;3.05;;;1.60;;
43861;SDS011;29510;52.140;5.034;2024-01-07T13:20:20;3.28;;;1.60;;
43861;SDS011;29510;52.140;5.034;2024-01-07T13:30:21;2.30;;;1.20;;
43861;SDS011;29510;52.140;5.034;2024-01-07T13:40:21;3.13;;;1.20;;
43861;SDS011;29510;52.140;5.034;2024-01-07T13:50:22;4.57;;;2.30;;
43861;SDS011;29510;52.140;5.034;2024-01-07T14:00:23;3.07;;;1.50;;
43861;SDS011;29510;52.140;5.034;2024-01-07T14:10:23;3.27;;;1.40;;
43861;SDS011;29510;52.140;5.034;2024-01-07T14:20:24;2.55;;;1.40;;
43861;SDS011;29510;52.140;5.034;2024-01-07T14:30:24;3.47;;;1.50;;
43861;SDS011;29510;52.140;5.034;2024-01-07T14:40:25;3.63;;;1.30;;
43861;SDS011;29510;52.140;5.034;2024-01-07T14:50:26;2.88;;;1.50;;
43861;SDS011;29510;52.140;5.034;2024-01-07T15:00:27;3.83;;;1.63;;
43861;SDS011;29510;52.140;5.034;2024-01-07T15:10:27;2.83;;;1.30;;
43861;SDS011;29510;52.140;5.034;2024-01-07T15:20:28;3.60;;;1.67;;
43861;SDS011;29510;52.140;5.034;2024-01-07T15:30:29;5.55;;;1.50;;
43861;SDS011;29510;52.140;5.034;2024-01-07T15:40:29;3.20;;;1.60;;
43861;SDS011;29510;52.140;5.034;2024-01-07T15:50:30;4.55;;;1.70;;
43861;SDS011;29510;52.140;5.034;2024-01-07T16:00:31;4.25;;;1.92;;
43861;SDS011;29510;52.140;5.034;2024-01-07T16:10:32;5.93;;;2.40;;
43861;SDS011;29510;52.140;5.034;2024-01-07T16:20:32;5.85;;;2.60;;
43861;SDS011;29510;52.140;5.034;2024-01-07T16:30:33;4.20;;;2.22;;
43861;SDS011;29510;52.140;5.034;2024-01-07T16:40:35;5.80;;;3.00;;
43861;SDS011;29510;52.140;5.034;2024-01-07T16:50:35;4.70;;;2.80;;
43861;SDS011;29510;52.140;5.034;2024-01-07T17:00:36;6.00;;;3.30;;
43861;SDS011;29510;52.140;5.034;2024-01-07T17:10:36;7.13;;;3.90;;
43861;SDS011;29510;52.140;5.034;2024-01-07T17:20:37;10.13;;;4.60;;
43861;SDS011;29510;52.140;5.034;2024-01-07T17:30:38;7.65;;;4.18;;
43861;SDS011;29510;52.140;5.034;2024-01-07T17:40:39;10.73;;;3.75;;
43861;SDS011;29510;52.140;5.034;2024-01-07T17:50:42;10.45;;;4.80;;
43861;SDS011;29510;52.140;5.034;2024-01-07T18:00:44;9.50;;;4.15;;
43861;SDS011;29510;52.140;5.034;2024-01-07T18:10:44;10.27;;;3.90;;
43861;SDS011;29510;52.140;5.034;2024-01-07T18:20:45;10.68;;;4.50;;
43861;SDS011;29510;52.140;5.034;2024-01-07T18:30:45;6.55;;;3.88;;
43861;SDS011;29510;52.140;5.034;2024-01-07T18:40:46;10.57;;;4.88;;
43861;SDS011;29510;52.140;5.034;2024-01-07T18:50:47;8.85;;;4.45;;
43861;SDS011;29510;52.140;5.034;2024-01-07T19:00:47;8.60;;;4.13;;
43861;SDS011;29510;52.140;5.034;2024-01-07T19:10:48;10.25;;;5.28;;
43861;SDS011;29510;52.140;5.034;2024-01-07T19:20:49;11.20;;;4.97;;
43861;SDS011;29510;52.140;5.034;2024-01-07T19:30:49;9.65;;;4.93;;
43861;SDS011;29510;52.140;5.034;2024-01-07T19:40:52;10.30;;;4.90;;
43861;SDS011;29510;52.140;5.034;2024-01-07T19:50:52;10.30;;;4.90;;
43861;SDS011;29510;52.140;5.034;2024-01-07T20:00:53;10.65;;;4.80;;
43861;SDS011;29510;52.140;5.034;2024-01-07T20:10:53;8.65;;;4.28;;
43861;SDS011;29510;52.140;5.034;2024-01-07T20:20:54;9.18;;;4.05;;
43861;SDS011;29510;52.140;5.034;2024-01-07T20:30:55;9.45;;;3.70;;
43861;SDS011;29510;52.140;5.034;2024-01-07T20:40:56;8.18;;;3.33;;
43861;SDS011;29510;52.140;5.034;2024-01-07T20:50:57;7.13;;;2.65;;
43861;SDS011;29510;52.140;5.034;2024-01-07T21:00:57;7.67;;;3.00;;
43861;SDS011;29510;52.140;5.034;2024-01-07T21:10:59;7.40;;;3.22;;
43861;SDS011;29510;52.140;5.034;2024-01-07T21:21:02;9.05;;;3.65;;
43861;SDS011;29510;52.140;5.034;2024-01-07T21:31:03;6.15;;;3.55;;
43861;SDS011;29510;52.140;5.034;2024-01-07T21:41:05;8.50;;;3.80;;
43861;SDS011;29510;52.140;5.034;2024-01-07T21:51:06;10.15;;;4.13;;
43861;SDS011;29510;52.140;5.034;2024-01-07T22:01:09;9.75;;;3.90;;
43861;SDS011;29510;52.140;5.034;2024-01-07T22:11:14;7.53;;;4.00;;
43861;SDS011;29510;52.140;5.034;2024-01-07T22:21:18;6.45;;;3.67;;
43861;SDS011;29510;52.140;5.034;2024-01-07T22:31:20;7.18;;;3.72;;
43861;SDS011;29510;52.140;5.034;2024-01-07T22:41:20;7.00;;;3.53;;
43861;SDS011;29510;52.140;5.034;2024-01-07T22:51:21;9.98;;;3.88;;
43861;SDS011;29510;52.140;5.034;2024-01-07T23:01:25;6.20;;;3.47;;
43861;SDS011;29510;52.140;5.034;2024-01-07T23:11:28;7.35;;;3.25;;
43861;SDS011;29510;52.140;5.034;2024-01-07T23:21:29;4.82;;;2.60;;
43861;SDS011;29510;52.140;5.034;2024-01-07T23:31:29;4.93;;;2.92;;
43861;SDS011;29510;52.140;5.034;2024-01-07T23:41:30;5.07;;;2.53;;
43861;SDS011;29510;52.140;5.034;2024-01-07T23:51:31;4.60;;;2.50;;
